»·PEaware :: SE-LPY KSMX-KBFL

SE-LPY :: KSMX-KBFL

FLIGHT INFORMATION

Flight Status: Arrived
Operator: Privately registered:
Sweden
More flights under this callsign
Pilot: Markus A. (5787)
Aircraft: CESSNA 172 SKYHAWK
(C172)
More flights by this aircraft type
Origin: KSMX Santa Maria Pub/Capt Hancock
United States
Destination: KBFL Meadows
United States
More flights between these airports :: More routes between these airports
Route: FLW
File this flight plan on PilotEdge
Remarks: Traning for CAT 5
Altitude:
(Current/Filed)
3,000ft
Speed:
(Current/Filed)
125kts
Departed: 26-Sep-17 09:57 AM
Arrived: 26-Sep-17 10:43 AM
Distance/Time
Traveled:
76nm/0:46
Distance/Time
To Go:
Arrived

Flight Plot

Page will automatically refresh every two minutes.


Map Options




Map Legend


Flown Route
Filed Route
Departure Airport
Arrival Airport
Navaid (VOR, NDB)
Fix

Horizontal Profiles

Position Reports

Time Latitude Longitude Heading Altitude Ground
Speed
26-Sep-17 09:06 35.238472 -120.636971 263 215ft 0kts
26-Sep-17 09:07 35.238471 -120.636973 263 215ft 0kts
26-Sep-17 09:08 35.238471 -120.636973 263 215ft 0kts
26-Sep-17 09:09 35.238471 -120.636974 263 215ft 0kts
26-Sep-17 09:13 34.896500 -120.445500 0 264ft 0kts
26-Sep-17 09:14 34.896518 -120.445536 316 264ft 0kts
26-Sep-17 09:15 34.896519 -120.445537 316 264ft 0kts
26-Sep-17 09:16 34.896519 -120.445538 316 264ft 0kts
26-Sep-17 09:17 34.896520 -120.445538 316 264ft 0kts
26-Sep-17 09:18 34.896521 -120.445539 316 264ft 0kts
26-Sep-17 09:19 34.896521 -120.445540 316 264ft 0kts
26-Sep-17 09:20 34.896522 -120.445541 316 264ft 0kts
26-Sep-17 09:21 34.896523 -120.445542 316 264ft 0kts
26-Sep-17 09:22 34.896524 -120.445543 316 264ft 0kts
26-Sep-17 09:23 34.896525 -120.445544 316 264ft 0kts
26-Sep-17 09:24 34.896525 -120.445544 316 264ft 0kts
26-Sep-17 09:25 34.896526 -120.445545 316 264ft 0kts
26-Sep-17 09:26 34.896527 -120.445546 316 264ft 0kts
26-Sep-17 09:27 34.896528 -120.445547 316 264ft 0kts
26-Sep-17 09:28 34.896528 -120.445548 316 264ft 0kts
26-Sep-17 09:29 34.896529 -120.445549 316 264ft 0kts
26-Sep-17 09:30 34.896530 -120.445550 316 264ft 0kts
26-Sep-17 09:31 34.896531 -120.445550 316 264ft 0kts
26-Sep-17 09:32 34.896531 -120.445551 316 264ft 0kts
26-Sep-17 09:33 34.896532 -120.445552 316 264ft 0kts
26-Sep-17 09:34 34.896533 -120.445553 316 264ft 0kts
26-Sep-17 09:35 34.896533 -120.445554 316 264ft 0kts
26-Sep-17 09:36 34.896534 -120.445555 316 264ft 0kts
26-Sep-17 09:37 34.896535 -120.445555 316 264ft 0kts
26-Sep-17 09:38 34.896536 -120.445556 316 264ft 0kts
26-Sep-17 09:39 34.896536 -120.445557 316 264ft 0kts
26-Sep-17 09:42 35.237836 -120.645789 268 215ft 0kts
26-Sep-17 09:43 34.896369 -120.445707 317 264ft 0kts
26-Sep-17 09:44 34.896370 -120.445708 317 264ft 0kts
26-Sep-17 09:45 34.896370 -120.445708 317 264ft 0kts
26-Sep-17 09:46 34.896371 -120.445708 317 264ft 0kts
26-Sep-17 09:47 34.896371 -120.445709 317 264ft 0kts
26-Sep-17 09:48 34.896372 -120.445710 317 264ft 0kts
26-Sep-17 09:49 34.896373 -120.445711 317 264ft 0kts
26-Sep-17 09:50 34.896374 -120.445712 317 264ft 0kts
26-Sep-17 09:51 34.896374 -120.445712 317 264ft 0kts
26-Sep-17 09:52 34.896375 -120.445713 317 264ft 0kts
26-Sep-17 09:53 34.896375 -120.445714 317 264ft 0kts
26-Sep-17 09:54 34.896376 -120.445715 317 264ft 0kts
26-Sep-17 09:55 34.896377 -120.445715 317 264ft 0kts
26-Sep-17 09:56 34.896122 -120.445766 95 264ft 17kts
26-Sep-17 09:57 34.893549 -120.445288 185 264ft 0kts
26-Sep-17 09:58 34.893548 -120.445288 185 264ft 0kts
26-Sep-17 09:59 34.893504 -120.445293 183 264ft 6kts
26-Sep-17 10:00 34.892820 -120.445859 313 264ft 0kts
26-Sep-17 10:01 34.890964 -120.455979 152 629ft 97kts
26-Sep-17 10:02 34.908684 -120.446803 61 948ft 100kts
26-Sep-17 10:03 34.916537 -120.414958 72 1738ft 94kts
26-Sep-17 10:04 34.924268 -120.385583 73 2522ft 87kts
26-Sep-17 10:05 34.930998 -120.355938 73 2984ft 105kts
26-Sep-17 10:06 34.937913 -120.325812 73 2999ft 85kts
26-Sep-17 10:07 34.944576 -120.297731 68 3011ft 89kts
26-Sep-17 10:08 34.952902 -120.270071 67 2844ft 95kts
26-Sep-17 10:09 34.960946 -120.242935 69 2619ft 104kts
26-Sep-17 10:10 34.970880 -120.209623 69 2416ft 100kts
26-Sep-17 10:11 34.978528 -120.183491 69 3031ft 75kts
26-Sep-17 10:12 34.987003 -120.152997 69 2995ft 113kts
26-Sep-17 10:13 34.993916 -120.130358 68 3314ft 99kts
26-Sep-17 10:14 35.000404 -120.108906 68 3652ft 93kts
26-Sep-17 10:15 35.009307 -120.078762 69 4260ft 91kts
26-Sep-17 10:16 35.017294 -120.051103 70 4629ft 103kts
26-Sep-17 10:17 35.026168 -120.020230 69 4613ft 118kts
26-Sep-17 10:18 35.037082 -119.983123 68 4614ft 116kts
26-Sep-17 10:19 35.048303 -119.944149 69 4613ft 120kts
26-Sep-17 10:20 35.059784 -119.907272 69 4614ft 115kts
26-Sep-17 10:21 35.071303 -119.869695 69 4618ft 121kts
26-Sep-17 10:22 35.085401 -119.836677 58 5189ft 110kts
26-Sep-17 10:23 35.100662 -119.805226 58 5198ft 112kts
26-Sep-17 10:24 35.117625 -119.770327 58 5200ft 121kts
26-Sep-17 10:25 35.135199 -119.735737 58 5199ft 114kts
26-Sep-17 10:26 35.151297 -119.704677 58 5234ft 110kts
26-Sep-17 10:27 35.165835 -119.676218 58 5237ft 122kts
26-Sep-17 10:28 35.183212 -119.641894 58 5246ft 111kts
26-Sep-17 10:29 35.199689 -119.609549 58 5239ft 118kts
26-Sep-17 10:30 35.218123 -119.573515 58 5244ft 127kts
26-Sep-17 10:31 35.236973 -119.536696 58 5245ft 125kts
26-Sep-17 10:32 35.255486 -119.500504 58 5252ft 121kts
26-Sep-17 10:33 35.271247 -119.467659 61 5248ft 116kts
26-Sep-17 10:34 35.287011 -119.432723 61 5248ft 119kts
26-Sep-17 10:35 35.303356 -119.396352 61 5247ft 122kts
26-Sep-17 10:36 35.319763 -119.359763 61 5243ft 124kts
26-Sep-17 10:37 35.336530 -119.321705 64 5238ft 124kts
26-Sep-17 10:38 35.349570 -119.286831 66 5232ft 119kts
26-Sep-17 10:39 35.362479 -119.250497 66 5238ft 119kts
26-Sep-17 10:40 35.375860 -119.212649 66 5233ft 114kts
26-Sep-17 10:41 35.385931 -119.176321 71 5232ft 105kts
26-Sep-17 10:42 35.388077 -119.139892 84 4010ft 126kts
26-Sep-17 10:43 35.392574 -119.094978 80 1536ft 124kts
26-Sep-17 10:44 35.397130 -119.061879 72 1158ft 92kts
26-Sep-17 10:45 35.409124 -119.038258 27 1077ft 90kts
26-Sep-17 10:46 35.428986 -119.050356 314 553ft 73kts
26-Sep-17 10:47 35.436385 -119.057608 69 510ft 0kts
26-Sep-17 10:48 35.436861 -119.054387 41 510ft 0kts
26-Sep-17 10:49 35.436861 -119.054387 41 510ft 0kts
26-Sep-17 10:50 35.436861 -119.054387 41 510ft 0kts
26-Sep-17 10:51 35.436861 -119.054387 41 510ft 0kts
26-Sep-17 10:52 35.436861 -119.054387 41 510ft 0kts

Navigation Log

Ident Type
1. KSMX Airport
2. FLW Navaid
3. KBFL Airport